createdAt,value
2019-05-18T00:00:05.163Z,12.18
2019-05-18T00:01:05.180Z,12.17
2019-05-18T00:02:05.144Z,12.10
2019-05-18T00:03:05.104Z,12.05
2019-05-18T00:04:05.097Z,11.97
2019-05-18T00:05:05.085Z,12.04
2019-05-18T00:06:05.075Z,12.03
2019-05-18T00:07:05.127Z,12.03
2019-05-18T00:08:05.047Z,12.04
2019-05-18T00:09:05.019Z,11.99
2019-05-18T00:10:05.053Z,12.00
2019-05-18T00:11:05.040Z,12.00
2019-05-18T00:12:05.019Z,12.07
2019-05-18T00:13:05.031Z,12.00
2019-05-18T00:14:05.001Z,12.03
2019-05-18T00:15:04.992Z,11.88
2019-05-18T00:16:04.973Z,11.97
2019-05-18T00:17:07.871Z,11.89
2019-05-18T00:18:06.024Z,12.03
2019-05-18T00:19:04.953Z,11.97
2019-05-18T00:20:04.952Z,11.89
2019-05-18T00:21:04.928Z,11.88
2019-05-18T00:22:04.903Z,11.89
2019-05-18T00:23:04.947Z,11.91
2019-05-18T00:24:04.904Z,11.89
2019-05-18T00:25:04.862Z,11.88
2019-05-18T00:26:04.848Z,11.89
2019-05-18T00:27:04.841Z,11.95
2019-05-18T00:28:04.874Z,11.82
2019-05-18T00:29:04.820Z,11.79
2019-05-18T00:30:04.812Z,11.77
2019-05-18T00:31:04.802Z,11.74
2019-05-18T00:32:04.791Z,11.82
2019-05-18T00:33:04.839Z,11.79
2019-05-18T00:34:04.796Z,11.77
2019-05-18T00:35:04.772Z,11.79
2019-05-18T00:36:04.732Z,11.74
2019-05-18T00:37:04.776Z,11.80
2019-05-18T00:38:04.758Z,11.73
2019-05-18T00:39:04.741Z,11.70
2019-05-18T00:40:04.697Z,11.70
2019-05-18T00:41:04.692Z,11.67
2019-05-18T00:42:04.680Z,11.69
2019-05-18T00:43:04.723Z,11.70
2019-05-18T00:44:04.700Z,11.62
2019-05-18T00:45:04.694Z,11.71
2019-05-18T00:46:04.671Z,11.61
2019-05-18T00:47:04.670Z,11.64
2019-05-18T00:48:04.677Z,11.64
2019-05-18T00:49:04.627Z,11.58
2019-05-18T00:50:04.614Z,11.61
2019-05-18T00:51:04.611Z,11.54
2019-05-18T00:52:04.619Z,11.52
2019-05-18T00:53:04.615Z,11.52
2019-05-18T00:54:04.564Z,11.40
2019-05-18T00:55:04.572Z,11.38
2019-05-18T00:56:04.568Z,11.30
2019-05-18T00:57:04.539Z,11.25
2019-05-18T00:58:04.553Z,11.27
2019-05-18T00:59:04.555Z,11.23
2019-05-18T01:00:04.459Z,11.28
2019-05-18T01:01:04.473Z,11.20
2019-05-18T01:02:04.469Z,11.12
2019-05-18T01:03:04.494Z,11.18
2019-05-18T01:04:04.434Z,11.16
2019-05-18T01:05:04.422Z,11.18
2019-05-18T01:06:04.416Z,11.15
2019-05-18T01:07:04.440Z,11.09
2019-05-18T01:08:04.486Z,10.97
2019-05-18T01:09:04.375Z,11.01
2019-05-18T01:10:04.366Z,10.97
2019-05-18T01:11:04.355Z,10.94
2019-05-18T01:12:04.328Z,10.87
2019-05-18T01:13:04.338Z,10.90
2019-05-18T01:14:04.324Z,10.93
2019-05-18T01:15:04.305Z,10.90
2019-05-18T01:16:04.323Z,10.83
2019-05-18T01:17:04.317Z,10.90
2019-05-18T01:18:04.279Z,10.82
2019-05-18T01:19:04.350Z,10.83
2019-05-18T01:20:04.249Z,10.85
2019-05-18T01:21:04.241Z,10.93
2019-05-18T01:22:04.222Z,10.93
2019-05-18T01:23:04.220Z,10.87
2019-05-18T01:24:04.267Z,10.91
2019-05-18T01:25:04.186Z,10.93
2019-05-18T01:26:04.183Z,10.94
2019-05-18T01:27:04.190Z,10.98
2019-05-18T01:28:04.178Z,10.93
2019-05-18T01:29:04.191Z,10.91
2019-05-18T01:30:04.180Z,10.82
2019-05-18T01:31:04.175Z,10.90
2019-05-18T01:32:04.118Z,10.82
2019-05-18T01:33:04.140Z,10.83
2019-05-18T01:34:04.175Z,10.79
2019-05-18T01:35:04.112Z,10.83
2019-05-18T01:36:04.101Z,10.78
2019-05-18T01:37:04.069Z,10.90
2019-05-18T01:38:04.054Z,10.85
2019-05-18T01:39:04.093Z,10.83
2019-05-18T01:40:04.033Z,10.82
2019-05-18T01:41:04.013Z,10.83
2019-05-18T01:42:04.002Z,10.80
2019-05-18T01:43:04.006Z,10.79
2019-05-18T01:44:03.994Z,10.80
2019-05-18T01:45:15.825Z,10.76
2019-05-18T01:46:04.988Z,10.76
2019-05-18T01:47:03.948Z,10.78
2019-05-18T01:48:13.216Z,10.76
2019-05-18T01:49:04.975Z,10.78
2019-05-18T01:50:03.919Z,10.70
2019-05-18T01:51:03.910Z,10.70
2019-05-18T01:52:04.029Z,10.64
2019-05-18T01:53:03.915Z,10.65
2019-05-18T01:54:03.907Z,10.55
2019-05-18T01:55:03.882Z,10.43
2019-05-18T01:56:03.842Z,10.43
2019-05-18T01:57:03.843Z,10.45
2019-05-18T01:58:03.812Z,10.43
2019-05-18T01:59:03.875Z,10.31
2019-05-18T02:00:03.813Z,10.26
2019-05-18T02:01:03.796Z,10.30
2019-05-18T02:02:03.807Z,10.31
2019-05-18T02:03:03.837Z,10.26
2019-05-18T02:04:03.868Z,10.28
2019-05-18T02:05:03.763Z,10.21
2019-05-18T02:06:03.774Z,10.26
2019-05-18T02:07:03.789Z,10.17
2019-05-18T02:08:03.705Z,10.23
2019-05-18T02:09:03.731Z,10.23
2019-05-18T02:10:03.710Z,10.24
2019-05-18T02:11:03.691Z,10.31
2019-05-18T02:12:03.671Z,10.31
2019-05-18T02:13:03.684Z,10.24
2019-05-18T02:14:03.662Z,10.28
2019-05-18T02:15:03.632Z,10.30
2019-05-18T02:16:03.639Z,10.21
2019-05-18T02:17:03.604Z,10.28
2019-05-18T02:18:03.647Z,10.34
2019-05-18T02:19:03.634Z,10.27
2019-05-18T02:20:03.587Z,10.36
2019-05-18T02:21:03.625Z,10.28
2019-05-18T02:22:03.590Z,10.28
2019-05-18T02:23:03.552Z,10.28
2019-05-18T02:24:03.685Z,10.27
2019-05-18T02:25:03.549Z,10.26
2019-05-18T02:26:03.541Z,10.34
2019-05-18T02:27:03.534Z,10.24
2019-05-18T02:28:03.474Z,10.34
2019-05-18T02:29:03.523Z,10.34
2019-05-18T02:30:03.525Z,10.23
2019-05-18T02:31:03.484Z,10.16
2019-05-18T02:32:03.475Z,10.21
2019-05-18T02:33:03.448Z,10.24
2019-05-18T02:34:03.516Z,10.16
2019-05-18T02:35:03.463Z,10.10
2019-05-18T02:36:03.459Z,10.06
2019-05-18T02:37:03.430Z,10.12
2019-05-18T02:38:03.397Z,10.08
2019-05-18T02:39:03.416Z,9.99
2019-05-18T02:40:03.381Z,10.10
2019-05-18T02:41:03.405Z,10.03
2019-05-18T02:42:03.339Z,10.08
2019-05-18T02:43:03.328Z,9.99
2019-05-18T02:44:03.374Z,10.05
2019-05-18T02:45:03.277Z,10.12
2019-05-18T02:46:03.404Z,10.01
2019-05-18T02:47:03.278Z,10.12
2019-05-18T02:48:03.283Z,10.06
2019-05-18T02:49:03.267Z,9.98
2019-05-18T02:50:03.299Z,9.96
2019-05-18T02:51:03.216Z,9.88
2019-05-18T02:52:03.248Z,9.81
2019-05-18T02:53:03.222Z,9.77
2019-05-18T02:54:03.209Z,9.77
2019-05-18T02:55:03.254Z,9.78
2019-05-18T02:56:03.173Z,9.73
2019-05-18T02:57:03.192Z,9.63
2019-05-18T02:58:03.183Z,9.81
2019-05-18T02:59:03.159Z,9.73
2019-05-18T03:01:40.112Z,9.70
2019-05-18T03:02:40.009Z,9.62
2019-05-18T03:03:40.016Z,9.57
2019-05-18T03:04:40.020Z,9.65
2019-05-18T03:05:39.986Z,9.63
2019-05-18T03:06:39.938Z,9.66
2019-05-18T03:07:39.949Z,9.63
2019-05-18T03:08:39.993Z,9.57
2019-05-18T03:09:39.985Z,9.70
2019-05-18T03:10:39.920Z,9.67
2019-05-18T03:11:39.907Z,9.65
2019-05-18T03:12:39.919Z,9.66
2019-05-18T03:13:39.899Z,9.66
2019-05-18T03:14:39.900Z,9.59
2019-05-18T03:15:39.850Z,9.75
2019-05-18T03:16:39.849Z,9.65
2019-05-18T03:17:39.850Z,9.65
2019-05-18T03:18:39.815Z,9.62
2019-05-18T03:19:39.874Z,9.69
2019-05-18T03:20:39.808Z,9.72
2019-05-18T03:21:39.798Z,9.65
2019-05-18T03:22:39.780Z,9.70
2019-05-18T03:23:39.751Z,9.66
2019-05-18T03:24:39.805Z,9.72
2019-05-18T03:25:39.786Z,9.62
2019-05-18T03:26:39.730Z,9.63
2019-05-18T03:27:39.741Z,9.59
2019-05-18T03:28:39.727Z,9.66
2019-05-18T03:29:39.730Z,9.65
2019-05-18T03:30:39.738Z,9.52
2019-05-18T03:31:39.693Z,9.52
2019-05-18T03:32:39.684Z,9.54
2019-05-18T03:33:39.652Z,9.55
2019-05-18T03:34:39.649Z,9.48
2019-05-18T03:35:39.682Z,9.54
2019-05-18T03:36:39.616Z,9.44
2019-05-18T03:37:39.636Z,9.45
2019-05-18T03:38:39.598Z,9.32
2019-05-18T03:39:39.592Z,9.30
2019-05-18T03:40:39.593Z,9.37
2019-05-18T03:41:39.573Z,9.36
2019-05-18T03:42:39.558Z,9.42
2019-05-18T03:43:39.538Z,9.45
2019-05-18T03:44:39.532Z,9.44
2019-05-18T03:45:39.623Z,9.29
2019-05-18T03:46:39.541Z,9.36
2019-05-18T03:47:39.494Z,9.34
2019-05-18T03:48:39.498Z,9.36
2019-05-18T03:49:39.474Z,9.42
2019-05-18T03:50:39.535Z,9.52
2019-05-18T03:51:39.455Z,9.45
2019-05-18T03:52:39.451Z,9.50
2019-05-18T03:53:39.424Z,9.42
2019-05-18T03:54:39.430Z,9.42
2019-05-18T03:55:39.428Z,9.40
2019-05-18T03:56:39.397Z,9.42
2019-05-18T03:57:39.372Z,9.42
2019-05-18T03:58:39.380Z,9.47
2019-05-18T03:59:39.359Z,9.41
2019-05-18T04:00:39.403Z,9.47
2019-05-18T04:01:39.348Z,9.50
2019-05-18T04:02:39.341Z,9.45
2019-05-18T04:03:39.310Z,9.50
2019-05-18T04:04:39.335Z,9.50
2019-05-18T04:05:39.375Z,9.50
2019-05-18T04:06:39.281Z,9.47
2019-05-18T04:07:39.347Z,9.59
2019-05-18T04:08:39.292Z,9.51
2019-05-18T04:09:39.278Z,9.54
2019-05-18T04:10:39.298Z,9.60
2019-05-18T04:11:39.247Z,9.69
2019-05-18T04:12:39.214Z,9.63
2019-05-18T04:13:39.298Z,9.63
2019-05-18T04:14:39.230Z,9.73
2019-05-18T04:15:39.201Z,9.73
2019-05-18T04:16:39.196Z,9.87
2019-05-18T04:17:39.200Z,9.78
2019-05-18T04:18:39.170Z,9.75
2019-05-18T04:19:46.538Z,9.83
2019-05-18T04:20:40.126Z,9.81
2019-05-18T04:21:39.206Z,9.88
2019-05-18T04:22:39.133Z,9.93
2019-05-18T04:23:39.134Z,9.96
2019-05-18T04:24:39.132Z,10.01
2019-05-18T04:25:43.299Z,10.01
2019-05-18T04:26:39.065Z,10.01
2019-05-18T04:27:39.043Z,10.06
2019-05-18T04:28:39.040Z,10.12
2019-05-18T04:29:39.087Z,10.08
2019-05-18T04:30:39.034Z,10.14
2019-05-18T04:31:38.981Z,10.10
2019-05-18T04:32:39.005Z,10.17
2019-05-18T04:33:38.979Z,10.20
2019-05-18T04:34:39.008Z,10.16
2019-05-18T04:35:38.957Z,10.16
2019-05-18T04:36:38.933Z,10.28
2019-05-18T04:37:38.948Z,10.36
2019-05-18T04:38:38.939Z,10.28
2019-05-18T04:39:38.932Z,10.34
2019-05-18T04:40:38.895Z,10.43
2019-05-18T04:41:38.884Z,10.41
2019-05-18T04:42:38.880Z,10.39
2019-05-18T04:43:38.865Z,10.43
2019-05-18T04:44:38.855Z,10.42
2019-05-18T04:45:38.872Z,10.54
2019-05-18T04:46:38.812Z,10.48
2019-05-18T04:47:38.829Z,10.48
2019-05-18T04:48:38.810Z,10.55
2019-05-18T04:49:38.790Z,10.57
2019-05-18T04:50:38.787Z,10.61
2019-05-18T04:51:38.755Z,10.65
2019-05-18T04:52:38.775Z,10.64
2019-05-18T04:53:38.785Z,10.68
2019-05-18T04:54:38.733Z,10.70
2019-05-18T04:55:38.817Z,10.78
2019-05-18T04:56:42.670Z,10.75
2019-05-18T04:57:38.732Z,10.75
2019-05-18T04:58:38.695Z,10.79
2019-05-18T04:59:38.680Z,10.75
2019-05-18T05:00:38.717Z,10.85
2019-05-18T05:01:38.667Z,10.80
2019-05-18T05:02:38.660Z,10.76
2019-05-18T05:03:38.651Z,10.76
2019-05-18T05:04:38.621Z,10.79
2019-05-18T05:05:38.649Z,10.80
2019-05-18T05:06:38.592Z,10.82
2019-05-18T05:07:38.614Z,10.87
2019-05-18T05:08:38.589Z,10.95
2019-05-18T05:09:38.580Z,10.98
2019-05-18T05:10:38.596Z,11.12
2019-05-18T05:11:38.563Z,11.03
2019-05-18T05:12:38.557Z,11.12
2019-05-18T05:13:38.527Z,11.23
2019-05-18T05:14:38.502Z,11.22
2019-05-18T05:15:38.551Z,11.34
2019-05-18T05:16:38.485Z,11.31
2019-05-18T05:17:38.494Z,11.36
2019-05-18T05:18:38.493Z,11.38
2019-05-18T05:19:38.466Z,11.45
2019-05-18T05:20:38.486Z,11.46
2019-05-18T05:21:38.472Z,11.56
2019-05-18T05:22:38.418Z,11.54
2019-05-18T05:23:38.457Z,11.59
2019-05-18T05:24:38.420Z,11.55
2019-05-18T05:25:38.465Z,11.61
2019-05-18T05:26:39.652Z,11.61
2019-05-18T05:27:38.381Z,11.67
2019-05-18T05:28:38.361Z,11.62
2019-05-18T05:29:38.351Z,11.76
2019-05-18T05:30:38.397Z,11.74
2019-05-18T05:31:38.342Z,11.74
2019-05-18T05:32:38.326Z,11.88
2019-05-18T05:33:38.301Z,11.88
2019-05-18T05:34:38.336Z,11.99
2019-05-18T05:35:38.357Z,12.03
2019-05-18T05:36:38.327Z,12.03
2019-05-18T05:37:38.274Z,12.11
2019-05-18T05:38:38.259Z,12.11
2019-05-18T05:39:38.278Z,12.14
2019-05-18T05:40:38.252Z,12.15
2019-05-18T05:41:38.232Z,12.29
2019-05-18T05:42:38.225Z,12.23
2019-05-18T05:43:38.202Z,12.33
2019-05-18T05:44:38.205Z,12.38
2019-05-18T05:45:38.202Z,12.44
2019-05-18T05:46:38.263Z,12.44
2019-05-18T05:47:38.148Z,12.46
2019-05-18T05:48:38.209Z,12.47
2019-05-18T05:49:38.174Z,12.58
2019-05-18T05:50:38.110Z,12.65
2019-05-18T05:51:38.134Z,12.66
2019-05-18T05:52:38.123Z,12.66
2019-05-18T05:53:38.187Z,12.69
2019-05-18T05:54:38.106Z,12.72
2019-05-18T05:55:38.093Z,12.66
2019-05-18T05:56:38.096Z,12.69
2019-05-18T05:57:38.037Z,12.72
2019-05-18T05:58:38.076Z,12.69
2019-05-18T05:59:38.096Z,12.79
2019-05-18T06:00:38.078Z,12.71
2019-05-18T06:01:37.990Z,12.83
2019-05-18T06:02:37.991Z,12.87
2019-05-18T06:03:38.013Z,12.96
2019-05-18T06:04:38.014Z,12.87
2019-05-18T06:05:37.962Z,12.96
2019-05-18T06:06:37.954Z,12.98
2019-05-18T06:07:37.937Z,12.96
2019-05-18T06:08:37.929Z,12.96
2019-05-18T06:09:37.953Z,13.04
2019-05-18T06:10:37.887Z,12.98
2019-05-18T06:11:37.901Z,13.04
2019-05-18T06:12:37.887Z,12.99
2019-05-18T06:13:37.889Z,13.16
2019-05-18T06:14:37.862Z,13.21
2019-05-18T06:15:37.904Z,13.26
2019-05-18T06:16:37.847Z,13.26
2019-05-18T06:17:37.832Z,13.30
2019-05-18T06:18:37.816Z,13.46
2019-05-18T06:19:37.825Z,13.45
2019-05-18T06:20:50.382Z,13.47
2019-05-18T06:21:38.826Z,13.58
2019-05-18T06:22:37.774Z,13.55
2019-05-18T06:23:37.755Z,13.49
2019-05-18T06:24:37.755Z,13.60
2019-05-18T06:25:37.753Z,13.76
2019-05-18T06:26:37.782Z,13.76
2019-05-18T06:27:37.733Z,13.73
2019-05-18T06:28:37.707Z,13.78
2019-05-18T06:29:37.709Z,13.72
2019-05-18T06:30:37.689Z,13.78
2019-05-18T06:31:37.728Z,13.82
2019-05-18T06:32:37.662Z,13.79
2019-05-18T06:33:38.529Z,13.86
2019-05-18T06:34:37.663Z,13.88
2019-05-18T06:35:37.654Z,13.93
2019-05-18T06:36:37.675Z,14.01
2019-05-18T06:37:37.594Z,13.97
2019-05-18T06:38:37.590Z,14.00
2019-05-18T06:39:37.592Z,13.98
2019-05-18T06:40:37.572Z,13.98
2019-05-18T06:41:37.668Z,14.08
2019-05-18T06:42:37.557Z,14.15
2019-05-18T06:43:37.550Z,14.12
2019-05-18T06:44:37.539Z,14.15
2019-05-18T06:45:37.529Z,14.16
2019-05-18T06:46:37.544Z,14.18
2019-05-18T06:47:37.494Z,14.23
2019-05-18T06:48:37.493Z,14.27
2019-05-18T06:49:37.484Z,14.26
2019-05-18T06:50:37.469Z,14.27
2019-05-18T06:51:37.548Z,14.33
2019-05-18T06:52:37.480Z,14.40
2019-05-18T06:53:37.438Z,14.49
2019-05-18T06:54:37.466Z,14.51
2019-05-18T06:55:37.407Z,14.53
2019-05-18T06:56:37.435Z,14.59
2019-05-18T06:57:37.442Z,14.61
2019-05-18T06:58:37.380Z,14.61
2019-05-18T06:59:37.406Z,14.66
2019-05-18T07:00:37.361Z,14.64
2019-05-18T07:01:37.361Z,14.74
2019-05-18T07:02:37.388Z,14.79
2019-05-18T07:03:37.343Z,14.78
2019-05-18T07:04:37.322Z,14.77
2019-05-18T07:05:37.300Z,14.79
2019-05-18T07:06:37.309Z,14.89
2019-05-18T07:07:37.327Z,14.97
2019-05-18T07:08:37.271Z,14.99
2019-05-18T07:09:37.288Z,15.10
2019-05-18T07:10:37.239Z,15.12
2019-05-18T07:11:37.246Z,15.11
2019-05-18T07:12:37.276Z,15.12
2019-05-18T07:13:37.248Z,15.12
2019-05-18T07:14:37.204Z,15.14
2019-05-18T07:15:37.180Z,15.32
2019-05-18T07:16:37.190Z,15.25
2019-05-18T07:17:37.209Z,15.15
2019-05-18T07:18:37.171Z,15.32
2019-05-18T07:19:37.168Z,15.33
2019-05-18T07:20:37.158Z,15.43
2019-05-18T07:21:37.151Z,15.45
2019-05-18T07:22:37.161Z,15.44
2019-05-18T07:23:37.115Z,15.52
2019-05-18T07:24:37.097Z,15.47
2019-05-18T07:25:37.097Z,15.51
2019-05-18T07:26:37.095Z,15.50
2019-05-18T07:27:37.164Z,15.72
2019-05-18T07:28:37.075Z,15.73
2019-05-18T07:29:37.068Z,15.73
2019-05-18T07:30:37.066Z,15.83
2019-05-18T07:31:37.017Z,15.96
2019-05-18T07:32:37.081Z,15.99
2019-05-18T07:33:37.027Z,15.98
2019-05-18T07:34:37.000Z,16.09
2019-05-18T07:35:36.971Z,16.14
2019-05-18T07:36:36.979Z,16.13
2019-05-18T07:37:37.021Z,16.13
2019-05-18T07:38:36.979Z,16.21
2019-05-18T07:39:36.923Z,16.18
2019-05-18T07:40:36.933Z,16.24
2019-05-18T07:41:46.332Z,16.37
2019-05-18T07:42:37.924Z,16.36
2019-05-18T07:43:36.922Z,16.37
2019-05-18T07:44:36.898Z,16.46
2019-05-18T07:45:36.896Z,16.46
2019-05-18T07:46:36.866Z,16.42
2019-05-18T07:47:36.842Z,16.52
2019-05-18T07:48:36.841Z,16.49
2019-05-18T07:49:36.813Z,16.49
2019-05-18T07:50:36.800Z,16.61
2019-05-18T07:51:37.495Z,16.55
2019-05-18T07:52:36.846Z,16.54
2019-05-18T07:53:36.786Z,16.57
2019-05-18T07:54:36.746Z,16.55
2019-05-18T07:55:36.738Z,16.55
2019-05-18T07:56:36.775Z,16.55
2019-05-18T07:57:36.730Z,16.62
2019-05-18T07:58:36.746Z,16.64
2019-05-18T07:59:36.738Z,16.72
2019-05-18T08:00:36.734Z,16.73
2019-05-18T08:01:36.689Z,16.77
2019-05-18T08:02:36.702Z,16.79
2019-05-18T08:03:36.726Z,16.90
2019-05-18T08:04:39.717Z,16.77
2019-05-18T08:05:36.667Z,16.91
2019-05-18T08:06:36.640Z,16.95
2019-05-18T08:07:36.633Z,16.97
2019-05-18T08:08:36.676Z,17.04
2019-05-18T08:09:36.591Z,17.12
2019-05-18T08:10:36.591Z,17.14
2019-05-18T08:11:36.582Z,17.22
2019-05-18T08:12:36.565Z,17.17
2019-05-18T08:13:36.594Z,17.17
2019-05-18T08:14:36.559Z,17.25
2019-05-18T08:15:36.528Z,17.24
2019-05-18T08:16:36.519Z,17.19
2019-05-18T08:17:36.499Z,17.25
2019-05-18T08:18:36.511Z,17.30
2019-05-18T08:19:36.489Z,17.30
2019-05-18T08:20:36.479Z,17.37
2019-05-18T08:21:36.459Z,17.45
2019-05-18T08:22:36.445Z,17.49
2019-05-18T08:23:36.460Z,17.56
2019-05-18T08:24:36.440Z,17.59
2019-05-18T08:25:36.420Z,17.56
2019-05-18T08:26:36.397Z,17.66
2019-05-18T08:27:36.387Z,17.66
2019-05-18T08:28:36.444Z,17.47
2019-05-18T08:29:36.415Z,17.62
2019-05-18T08:30:36.357Z,17.66
2019-05-18T08:31:36.369Z,17.59
2019-05-18T08:32:36.460Z,17.62
2019-05-18T08:33:36.359Z,17.66
2019-05-18T08:34:36.335Z,17.62
2019-05-18T08:35:36.324Z,17.63
2019-05-18T08:36:36.315Z,17.75
2019-05-18T08:37:36.272Z,17.86
2019-05-18T08:38:36.357Z,17.86
2019-05-18T08:39:36.289Z,17.90
2019-05-18T08:40:36.281Z,17.90
2019-05-18T08:41:36.268Z,17.97
2019-05-18T08:42:36.227Z,17.96
2019-05-18T08:43:36.250Z,18.05
2019-05-18T08:44:36.244Z,18.03
2019-05-18T08:45:36.225Z,18.01
2019-05-18T08:46:36.205Z,18.09
2019-05-18T08:47:36.167Z,18.05
2019-05-18T08:48:36.180Z,18.05
2019-05-18T08:49:36.144Z,18.03
2019-05-18T08:50:36.179Z,18.17
2019-05-18T08:51:36.201Z,18.18
2019-05-18T08:52:36.112Z,18.21
2019-05-18T08:53:36.184Z,18.17
2019-05-18T08:54:36.098Z,18.24
2019-05-18T08:55:36.075Z,18.26
2019-05-18T08:56:36.088Z,18.20
2019-05-18T08:57:36.067Z,18.30
2019-05-18T08:58:36.101Z,18.31
2019-05-18T08:59:36.034Z,18.42
2019-05-18T09:00:36.044Z,18.43
2019-05-18T09:01:36.025Z,18.51
2019-05-18T09:02:35.999Z,18.57
2019-05-18T09:03:36.041Z,18.61
2019-05-18T09:04:35.997Z,18.54
2019-05-18T09:05:35.982Z,18.48
2019-05-18T09:06:35.986Z,18.56
2019-05-18T09:07:35.956Z,18.58
2019-05-18T09:08:35.951Z,18.57
2019-05-18T09:09:35.985Z,18.68
2019-05-18T09:10:35.942Z,18.76
2019-05-18T09:11:35.928Z,18.75
2019-05-18T09:12:35.919Z,18.74
2019-05-18T09:13:35.902Z,18.83
2019-05-18T09:14:35.938Z,18.85
2019-05-18T09:15:35.930Z,18.83
2019-05-18T09:16:35.890Z,18.83
2019-05-18T09:17:35.884Z,18.88
2019-05-18T09:18:35.865Z,18.93
2019-05-18T09:19:35.889Z,18.93
2019-05-18T09:20:35.829Z,18.94
2019-05-18T09:21:35.814Z,18.91
2019-05-18T09:22:35.847Z,19.01
2019-05-18T09:23:36.115Z,19.00
2019-05-18T09:24:35.843Z,19.15
2019-05-18T09:25:35.816Z,19.09
2019-05-18T09:26:35.857Z,19.12
2019-05-18T09:27:35.734Z,19.22
2019-05-18T09:28:35.716Z,19.12
2019-05-18T09:29:35.757Z,19.09
2019-05-18T09:30:35.703Z,19.17
2019-05-18T09:31:35.688Z,19.12
2019-05-18T09:32:35.693Z,19.08
2019-05-18T09:33:35.684Z,19.17
2019-05-18T09:34:35.727Z,19.22
2019-05-18T09:35:35.657Z,19.20
2019-05-18T09:36:35.670Z,19.20
2019-05-18T09:37:35.637Z,19.23
2019-05-18T09:38:35.619Z,19.19
2019-05-18T09:39:35.640Z,19.26
2019-05-18T09:40:35.601Z,19.22
2019-05-18T09:41:35.607Z,19.23
2019-05-18T09:42:35.586Z,19.35
2019-05-18T09:43:35.570Z,19.34
2019-05-18T09:44:35.580Z,19.23
2019-05-18T09:45:35.530Z,19.24
2019-05-18T09:46:35.520Z,19.32
2019-05-18T09:47:35.524Z,19.44
2019-05-18T09:48:35.655Z,19.41
2019-05-18T09:49:35.526Z,19.38
2019-05-18T09:50:35.484Z,19.39
2019-05-18T09:51:35.470Z,19.44
2019-05-18T09:52:44.628Z,19.35
2019-05-18T09:53:36.441Z,19.49
2019-05-18T09:54:35.451Z,19.37
2019-05-18T09:55:35.418Z,19.49
2019-05-18T09:56:35.415Z,19.42
2019-05-18T09:57:35.419Z,19.45
2019-05-18T09:58:35.383Z,19.60
2019-05-18T09:59:35.399Z,19.53
2019-05-18T10:00:38.979Z,19.63
2019-05-18T10:01:35.357Z,19.71
2019-05-18T10:02:35.361Z,19.75
2019-05-18T10:03:35.372Z,19.90
2019-05-18T10:04:35.343Z,19.87
2019-05-18T10:05:35.364Z,19.81
2019-05-18T10:06:35.326Z,19.93
2019-05-18T10:07:35.288Z,19.94
2019-05-18T10:08:35.306Z,19.96
2019-05-18T10:09:39.309Z,20.07
2019-05-18T10:10:35.291Z,20.00
2019-05-18T10:11:38.376Z,20.09
2019-05-18T10:12:35.236Z,20.05
2019-05-18T10:13:35.248Z,19.97
2019-05-18T10:14:35.230Z,20.11
2019-05-18T10:15:35.253Z,20.12
2019-05-18T10:16:35.211Z,20.12
2019-05-18T10:17:35.190Z,20.11
2019-05-18T10:18:35.177Z,20.11
2019-05-18T10:19:35.159Z,20.17
2019-05-18T10:20:35.201Z,20.12
2019-05-18T10:21:35.139Z,20.12
2019-05-18T10:22:35.126Z,20.11
2019-05-18T10:23:35.116Z,20.02
2019-05-18T10:24:35.107Z,20.09
2019-05-18T10:25:35.124Z,20.08
2019-05-18T10:26:35.168Z,20.08
2019-05-18T10:27:35.076Z,20.09
2019-05-18T10:28:35.110Z,20.09
2019-05-18T10:29:35.076Z,20.09
2019-05-18T10:30:35.061Z,20.07
2019-05-18T10:31:35.042Z,19.99
2019-05-18T10:32:35.027Z,20.12
2019-05-18T10:33:35.141Z,20.08
2019-05-18T10:34:35.001Z,20.07
2019-05-18T10:35:35.102Z,20.09
2019-05-18T10:36:34.978Z,20.11
2019-05-18T10:37:34.983Z,20.09
2019-05-18T10:38:34.996Z,20.05
2019-05-18T10:39:34.954Z,20.12
2019-05-18T10:40:34.940Z,20.08
2019-05-18T10:41:34.927Z,20.05
2019-05-18T10:42:34.916Z,20.09
2019-05-18T10:43:34.930Z,20.07
2019-05-18T10:44:34.920Z,20.02
2019-05-18T10:45:34.886Z,20.08
2019-05-18T10:46:34.899Z,20.07
2019-05-18T10:47:34.854Z,20.07
2019-05-18T10:48:34.865Z,20.11
2019-05-18T10:49:34.834Z,20.08
2019-05-18T10:50:34.826Z,20.09
2019-05-18T10:51:34.821Z,20.08
2019-05-18T10:52:34.835Z,20.11
2019-05-18T10:53:34.817Z,20.18
2019-05-18T10:54:34.792Z,20.12
2019-05-18T10:55:34.804Z,20.22
2019-05-18T10:56:34.879Z,20.14
2019-05-18T10:57:34.778Z,20.18
2019-05-18T10:58:34.748Z,20.25
2019-05-18T10:59:34.777Z,20.26
2019-05-18T11:00:34.715Z,20.29
2019-05-18T11:01:34.706Z,20.27
2019-05-18T11:02:34.701Z,20.26
2019-05-18T11:03:34.707Z,20.42
2019-05-18T11:04:34.812Z,20.48
2019-05-18T11:05:34.683Z,20.46
2019-05-18T11:06:34.680Z,20.46
2019-05-18T11:07:34.717Z,20.52
2019-05-18T11:08:34.666Z,20.56
2019-05-18T11:09:34.722Z,20.71
2019-05-18T11:10:34.634Z,20.65
2019-05-18T11:11:34.613Z,20.73
2019-05-18T11:12:34.584Z,20.70
2019-05-18T11:13:34.627Z,20.67
2019-05-18T11:14:34.649Z,20.77
2019-05-18T11:15:34.554Z,20.68
2019-05-18T11:16:34.570Z,20.73
2019-05-18T11:17:34.531Z,20.82
2019-05-18T11:18:34.529Z,20.83
2019-05-18T11:19:34.543Z,20.83
2019-05-18T11:20:34.520Z,20.86
2019-05-18T11:21:34.489Z,20.86
2019-05-18T11:22:34.501Z,20.90
2019-05-18T11:23:43.088Z,21.03
2019-05-18T11:24:35.533Z,20.93
2019-05-18T11:25:34.447Z,21.07
2019-05-18T11:26:34.434Z,21.08
2019-05-18T11:27:34.422Z,21.10
2019-05-18T11:28:34.444Z,21.07
2019-05-18T11:29:34.407Z,21.10
2019-05-18T11:30:34.429Z,21.22
2019-05-18T11:31:34.376Z,21.28
2019-05-18T11:32:34.401Z,21.28
2019-05-18T11:33:34.358Z,21.29
2019-05-18T11:34:34.355Z,21.29
2019-05-18T11:35:34.362Z,21.28
2019-05-18T11:36:34.321Z,21.32
2019-05-18T11:37:34.315Z,21.28
2019-05-18T11:38:34.296Z,21.35
2019-05-18T11:39:34.310Z,21.26
2019-05-18T11:40:34.338Z,21.28
2019-05-18T11:41:34.269Z,21.22
2019-05-18T11:42:34.279Z,21.19
2019-05-18T11:43:34.245Z,21.18
2019-05-18T11:44:34.266Z,21.08
2019-05-18T11:45:34.279Z,21.13
2019-05-18T11:46:34.213Z,21.11
2019-05-18T11:47:34.225Z,21.10
2019-05-18T11:48:34.188Z,21.08
2019-05-18T11:49:34.172Z,21.10
2019-05-18T11:50:34.195Z,21.11
2019-05-18T11:51:34.167Z,21.07
2019-05-18T11:52:34.143Z,21.07
2019-05-18T11:53:34.139Z,21.04
2019-05-18T11:54:34.115Z,21.07
2019-05-18T11:55:34.151Z,21.05
2019-05-18T11:56:34.154Z,21.14
2019-05-18T11:57:34.091Z,21.16
2019-05-18T11:58:34.087Z,21.18
2019-05-18T11:59:34.082Z,21.20
2019-05-18T12:00:34.155Z,21.20
2019-05-18T12:01:34.076Z,21.23
2019-05-18T12:02:34.036Z,21.22
2019-05-18T12:03:34.042Z,21.34
2019-05-18T12:04:34.010Z,21.25
2019-05-18T12:05:34.081Z,21.26
2019-05-18T12:06:34.042Z,21.32
2019-05-18T12:07:33.977Z,21.37
2019-05-18T12:08:33.987Z,21.29
2019-05-18T12:09:33.999Z,21.44
2019-05-18T12:10:33.978Z,21.55
2019-05-18T12:11:33.935Z,21.53
2019-05-18T12:12:33.920Z,21.50
2019-05-18T12:13:33.942Z,21.50
2019-05-18T12:14:33.915Z,21.55
2019-05-18T12:15:33.942Z,21.63
2019-05-18T12:16:33.883Z,21.67
2019-05-18T12:17:33.866Z,21.59
2019-05-18T12:18:33.859Z,21.59
2019-05-18T12:19:33.849Z,21.59
2019-05-18T12:20:33.831Z,21.62
2019-05-18T12:21:33.900Z,21.63
2019-05-18T12:22:33.809Z,21.66
2019-05-18T12:23:33.797Z,21.73
2019-05-18T12:24:33.809Z,21.75
2019-05-18T12:25:33.771Z,21.73
2019-05-18T12:26:33.833Z,21.71
2019-05-18T12:27:33.806Z,21.75
2019-05-18T12:28:33.745Z,21.80
2019-05-18T12:29:33.753Z,21.78
2019-05-18T12:30:33.721Z,21.74
2019-05-18T12:31:33.799Z,21.85
2019-05-18T12:32:33.699Z,21.81
2019-05-18T12:33:33.712Z,21.94
2019-05-18T12:34:33.683Z,21.93
2019-05-18T12:35:33.672Z,21.93
2019-05-18T12:36:33.725Z,22.04
2019-05-18T12:37:33.737Z,22.03
2019-05-18T12:38:33.661Z,22.01
2019-05-18T12:39:33.655Z,22.07
2019-05-18T12:40:33.633Z,22.13
2019-05-18T12:41:33.650Z,22.13
2019-05-18T12:42:33.634Z,22.11
2019-05-18T12:43:33.609Z,22.11
2019-05-18T12:44:33.572Z,22.15
2019-05-18T12:45:33.654Z,22.13
2019-05-18T12:46:33.731Z,22.12
2019-05-18T12:47:33.603Z,22.11
2019-05-18T12:48:33.522Z,22.18
2019-05-18T12:49:33.542Z,22.15
2019-05-18T12:50:33.508Z,22.12
2019-05-18T12:51:33.523Z,22.16
2019-05-18T12:52:33.483Z,22.07
2019-05-18T12:53:33.470Z,22.13
2019-05-18T12:54:45.590Z,22.15
2019-05-18T12:55:34.450Z,22.16
2019-05-18T12:56:33.498Z,22.15